sensor_id;sensor_type;location;lat;lon;timestamp;P1;durP1;ratioP1;P2;durP2;ratioP2
33952;SDS011;20231;42.710;23.280;2022-12-07T00:00:27;35.10;;;17.35;;
33952;SDS011;20231;42.710;23.280;2022-12-07T00:02:53;30.48;;;16.63;;
33952;SDS011;20231;42.710;23.280;2022-12-07T00:05:19;31.13;;;16.15;;
33952;SDS011;20231;42.710;23.280;2022-12-07T00:07:44;31.83;;;16.00;;
33952;SDS011;20231;42.710;23.280;2022-12-07T00:10:10;31.92;;;17.35;;
33952;SDS011;20231;42.710;23.280;2022-12-07T00:12:35;32.78;;;16.67;;
33952;SDS011;20231;42.710;23.280;2022-12-07T00:15:00;31.48;;;17.08;;
33952;SDS011;20231;42.710;23.280;2022-12-07T00:17:26;32.83;;;17.13;;
33952;SDS011;20231;42.710;23.280;2022-12-07T00:19:51;36.42;;;18.25;;
33952;SDS011;20231;42.710;23.280;2022-12-07T00:22:16;35.75;;;16.73;;
33952;SDS011;20231;42.710;23.280;2022-12-07T00:24:42;34.63;;;17.40;;
33952;SDS011;20231;42.710;23.280;2022-12-07T00:27:07;31.52;;;16.23;;
33952;SDS011;20231;42.710;23.280;2022-12-07T00:29:33;38.83;;;18.20;;
33952;SDS011;20231;42.710;23.280;2022-12-07T00:31:58;31.50;;;17.00;;
33952;SDS011;20231;42.710;23.280;2022-12-07T00:34:23;39.40;;;17.48;;
33952;SDS011;20231;42.710;23.280;2022-12-07T00:36:49;34.50;;;16.95;;
33952;SDS011;20231;42.710;23.280;2022-12-07T00:39:15;30.08;;;16.75;;
33952;SDS011;20231;42.710;23.280;2022-12-07T00:41:41;30.90;;;17.70;;
33952;SDS011;20231;42.710;23.280;2022-12-07T00:44:06;31.40;;;16.25;;
33952;SDS011;20231;42.710;23.280;2022-12-07T00:46:32;29.25;;;16.60;;
33952;SDS011;20231;42.710;23.280;2022-12-07T00:48:57;35.25;;;17.30;;
33952;SDS011;20231;42.710;23.280;2022-12-07T00:51:23;34.30;;;17.02;;
33952;SDS011;20231;42.710;23.280;2022-12-07T00:53:50;38.88;;;17.45;;
33952;SDS011;20231;42.710;23.280;2022-12-07T00:56:17;32.55;;;17.65;;
33952;SDS011;20231;42.710;23.280;2022-12-07T00:58:54;38.70;;;19.10;;
33952;SDS011;20231;42.710;23.280;2022-12-07T01:01:21;41.65;;;19.02;;
33952;SDS011;20231;42.710;23.280;2022-12-07T01:03:48;39.50;;;19.52;;
33952;SDS011;20231;42.710;23.280;2022-12-07T01:06:17;43.40;;;20.73;;
33952;SDS011;20231;42.710;23.280;2022-12-07T01:08:44;44.95;;;19.63;;
33952;SDS011;20231;42.710;23.280;2022-12-07T01:11:11;44.17;;;20.30;;
33952;SDS011;20231;42.710;23.280;2022-12-07T01:13:38;40.15;;;20.00;;
33952;SDS011;20231;42.710;23.280;2022-12-07T01:16:05;36.60;;;19.90;;
33952;SDS011;20231;42.710;23.280;2022-12-07T01:18:32;40.25;;;20.77;;
33952;SDS011;20231;42.710;23.280;2022-12-07T01:21:00;37.80;;;20.95;;
33952;SDS011;20231;42.710;23.280;2022-12-07T01:23:27;46.42;;;20.92;;
33952;SDS011;20231;42.710;23.280;2022-12-07T01:25:55;38.83;;;20.70;;
33952;SDS011;20231;42.710;23.280;2022-12-07T01:28:24;41.35;;;19.48;;
33952;SDS011;20231;42.710;23.280;2022-12-07T01:30:59;41.17;;;20.75;;
33952;SDS011;20231;42.710;23.280;2022-12-07T01:33:27;33.28;;;19.10;;
33952;SDS011;20231;42.710;23.280;2022-12-07T01:35:54;37.15;;;20.35;;
33952;SDS011;20231;42.710;23.280;2022-12-07T01:38:25;43.88;;;20.38;;
33952;SDS011;20231;42.710;23.280;2022-12-07T01:40:54;35.45;;;19.45;;
33952;SDS011;20231;42.710;23.280;2022-12-07T01:43:20;37.33;;;20.88;;
33952;SDS011;20231;42.710;23.280;2022-12-07T01:45:47;37.42;;;18.52;;
33952;SDS011;20231;42.710;23.280;2022-12-07T01:48:13;36.28;;;19.95;;
33952;SDS011;20231;42.710;23.280;2022-12-07T01:50:42;33.45;;;19.60;;
33952;SDS011;20231;42.710;23.280;2022-12-07T01:53:10;34.97;;;18.48;;
33952;SDS011;20231;42.710;23.280;2022-12-07T01:55:37;36.22;;;19.88;;
33952;SDS011;20231;42.710;23.280;2022-12-07T01:58:07;33.90;;;19.00;;
33952;SDS011;20231;42.710;23.280;2022-12-07T02:00:33;36.35;;;18.83;;
33952;SDS011;20231;42.710;23.280;2022-12-07T02:03:13;37.50;;;18.80;;
33952;SDS011;20231;42.710;23.280;2022-12-07T02:05:43;39.47;;;19.48;;
33952;SDS011;20231;42.710;23.280;2022-12-07T02:08:11;33.78;;;19.23;;
33952;SDS011;20231;42.710;23.280;2022-12-07T02:10:38;37.80;;;19.08;;
33952;SDS011;20231;42.710;23.280;2022-12-07T02:13:05;37.53;;;18.95;;
33952;SDS011;20231;42.710;23.280;2022-12-07T02:18:55;28.27;;;17.38;;
33952;SDS011;20231;42.710;23.280;2022-12-07T02:21:45;34.35;;;18.73;;
33952;SDS011;20231;42.710;23.280;2022-12-07T02:27:06;38.88;;;19.58;;
33952;SDS011;20231;42.710;23.280;2022-12-07T02:29:35;39.88;;;19.85;;
33952;SDS011;20231;42.710;23.280;2022-12-07T02:34:49;37.40;;;18.65;;
33952;SDS011;20231;42.710;23.280;2022-12-07T02:37:19;37.70;;;17.85;;
33952;SDS011;20231;42.710;23.280;2022-12-07T02:40:15;51.75;;;28.63;;
33952;SDS011;20231;42.710;23.280;2022-12-07T02:42:46;71.13;;;43.67;;
33952;SDS011;20231;42.710;23.280;2022-12-07T02:45:17;56.85;;;33.50;;
33952;SDS011;20231;42.710;23.280;2022-12-07T02:47:47;53.88;;;29.88;;
33952;SDS011;20231;42.710;23.280;2022-12-07T02:50:17;43.75;;;23.45;;
33952;SDS011;20231;42.710;23.280;2022-12-07T02:52:45;41.35;;;23.10;;
33952;SDS011;20231;42.710;23.280;2022-12-07T02:55:10;32.42;;;19.40;;
33952;SDS011;20231;42.710;23.280;2022-12-07T02:57:41;36.97;;;20.83;;
33952;SDS011;20231;42.710;23.280;2022-12-07T03:00:19;45.60;;;25.90;;
33952;SDS011;20231;42.710;23.280;2022-12-07T03:02:50;44.75;;;25.05;;
33952;SDS011;20231;42.710;23.280;2022-12-07T03:15:45;45.28;;;24.60;;
33952;SDS011;20231;42.710;23.280;2022-12-07T03:18:17;41.30;;;23.35;;
33952;SDS011;20231;42.710;23.280;2022-12-07T03:20:48;37.13;;;21.05;;
33952;SDS011;20231;42.710;23.280;2022-12-07T03:23:17;44.22;;;20.48;;
33952;SDS011;20231;42.710;23.280;2022-12-07T03:25:49;36.60;;;19.27;;
33952;SDS011;20231;42.710;23.280;2022-12-07T03:28:18;30.00;;;17.13;;
33952;SDS011;20231;42.710;23.280;2022-12-07T03:33:26;36.25;;;18.05;;
33952;SDS011;20231;42.710;23.280;2022-12-07T03:36:04;36.20;;;18.98;;
33952;SDS011;20231;42.710;23.280;2022-12-07T03:41:28;33.72;;;17.45;;
33952;SDS011;20231;42.710;23.280;2022-12-07T03:43:56;37.15;;;18.52;;
33952;SDS011;20231;42.710;23.280;2022-12-07T03:49:19;37.58;;;20.00;;
33952;SDS011;20231;42.710;23.280;2022-12-07T03:51:53;40.72;;;18.48;;
33952;SDS011;20231;42.710;23.280;2022-12-07T03:54:45;37.47;;;20.52;;
33952;SDS011;20231;42.710;23.280;2022-12-07T03:57:16;38.45;;;19.48;;
33952;SDS011;20231;42.710;23.280;2022-12-07T03:59:43;37.88;;;19.98;;
33952;SDS011;20231;42.710;23.280;2022-12-07T04:02:11;35.13;;;19.35;;
33952;SDS011;20231;42.710;23.280;2022-12-07T04:04:37;36.33;;;18.23;;
33952;SDS011;20231;42.710;23.280;2022-12-07T04:07:03;40.83;;;19.38;;
33952;SDS011;20231;42.710;23.280;2022-12-07T04:09:28;34.50;;;18.00;;
33952;SDS011;20231;42.710;23.280;2022-12-07T04:11:54;31.38;;;18.67;;
33952;SDS011;20231;42.710;23.280;2022-12-07T04:14:19;30.48;;;17.73;;
33952;SDS011;20231;42.710;23.280;2022-12-07T04:16:49;35.22;;;19.63;;
33952;SDS011;20231;42.710;23.280;2022-12-07T04:19:16;38.78;;;18.58;;
33952;SDS011;20231;42.710;23.280;2022-12-07T04:21:43;39.08;;;21.05;;
33952;SDS011;20231;42.710;23.280;2022-12-07T04:24:08;39.13;;;21.67;;
33952;SDS011;20231;42.710;23.280;2022-12-07T04:26:34;44.78;;;21.02;;
33952;SDS011;20231;42.710;23.280;2022-12-07T04:28:59;38.28;;;19.40;;
33952;SDS011;20231;42.710;23.280;2022-12-07T04:31:25;39.38;;;20.73;;
33952;SDS011;20231;42.710;23.280;2022-12-07T04:33:50;36.42;;;20.25;;
33952;SDS011;20231;42.710;23.280;2022-12-07T04:36:16;32.60;;;19.05;;
33952;SDS011;20231;42.710;23.280;2022-12-07T04:38:41;36.53;;;20.58;;
33952;SDS011;20231;42.710;23.280;2022-12-07T04:41:07;36.97;;;19.88;;
33952;SDS011;20231;42.710;23.280;2022-12-07T04:43:34;35.25;;;19.45;;
33952;SDS011;20231;42.710;23.280;2022-12-07T04:46:00;38.58;;;19.17;;
33952;SDS011;20231;42.710;23.280;2022-12-07T04:48:26;35.97;;;18.48;;
33952;SDS011;20231;42.710;23.280;2022-12-07T04:50:52;37.10;;;19.92;;
33952;SDS011;20231;42.710;23.280;2022-12-07T04:53:18;33.33;;;17.90;;
33952;SDS011;20231;42.710;23.280;2022-12-07T04:55:43;42.60;;;19.17;;
33952;SDS011;20231;42.710;23.280;2022-12-07T04:58:10;39.08;;;17.52;;
33952;SDS011;20231;42.710;23.280;2022-12-07T05:00:35;37.15;;;19.77;;
33952;SDS011;20231;42.710;23.280;2022-12-07T05:03:01;40.30;;;19.30;;
33952;SDS011;20231;42.710;23.280;2022-12-07T05:05:26;35.20;;;18.15;;
33952;SDS011;20231;42.710;23.280;2022-12-07T05:07:52;48.35;;;20.15;;
33952;SDS011;20231;42.710;23.280;2022-12-07T05:10:17;37.22;;;18.38;;
33952;SDS011;20231;42.710;23.280;2022-12-07T05:12:43;39.40;;;19.77;;
33952;SDS011;20231;42.710;23.280;2022-12-07T05:15:08;37.35;;;20.08;;
33952;SDS011;20231;42.710;23.280;2022-12-07T05:17:34;40.80;;;19.92;;
33952;SDS011;20231;42.710;23.280;2022-12-07T05:19:59;34.00;;;18.90;;
33952;SDS011;20231;42.710;23.280;2022-12-07T05:22:25;37.58;;;20.05;;
33952;SDS011;20231;42.710;23.280;2022-12-07T05:24:53;35.95;;;18.85;;
33952;SDS011;20231;42.710;23.280;2022-12-07T05:27:19;41.58;;;21.05;;
33952;SDS011;20231;42.710;23.280;2022-12-07T05:29:45;36.58;;;19.80;;
33952;SDS011;20231;42.710;23.280;2022-12-07T05:32:11;36.55;;;18.40;;
33952;SDS011;20231;42.710;23.280;2022-12-07T05:34:36;34.00;;;19.63;;
33952;SDS011;20231;42.710;23.280;2022-12-07T05:37:02;38.28;;;20.25;;
33952;SDS011;20231;42.710;23.280;2022-12-07T05:39:27;39.10;;;20.55;;
33952;SDS011;20231;42.710;23.280;2022-12-07T05:41:54;38.92;;;18.48;;
33952;SDS011;20231;42.710;23.280;2022-12-07T05:44:41;35.35;;;18.73;;
33952;SDS011;20231;42.710;23.280;2022-12-07T05:47:10;35.20;;;17.70;;
33952;SDS011;20231;42.710;23.280;2022-12-07T05:49:37;56.88;;;27.58;;
33952;SDS011;20231;42.710;23.280;2022-12-07T05:52:03;56.35;;;29.17;;
33952;SDS011;20231;42.710;23.280;2022-12-07T05:54:29;37.60;;;20.33;;
33952;SDS011;20231;42.710;23.280;2022-12-07T05:56:54;34.75;;;18.35;;
33952;SDS011;20231;42.710;23.280;2022-12-07T05:59:20;30.65;;;17.55;;
33952;SDS011;20231;42.710;23.280;2022-12-07T06:01:58;32.97;;;18.30;;
33952;SDS011;20231;42.710;23.280;2022-12-07T06:04:27;37.05;;;18.55;;
33952;SDS011;20231;42.710;23.280;2022-12-07T06:06:54;34.47;;;17.90;;
33952;SDS011;20231;42.710;23.280;2022-12-07T06:09:21;33.08;;;19.05;;
33952;SDS011;20231;42.710;23.280;2022-12-07T06:11:47;31.13;;;18.52;;
33952;SDS011;20231;42.710;23.280;2022-12-07T06:14:31;65.35;;;30.45;;
33952;SDS011;20231;42.710;23.280;2022-12-07T06:16:57;118.95;;;51.85;;
33952;SDS011;20231;42.710;23.280;2022-12-07T06:19:23;98.40;;;43.13;;
33952;SDS011;20231;42.710;23.280;2022-12-07T06:21:48;104.30;;;45.00;;
33952;SDS011;20231;42.710;23.280;2022-12-07T06:24:14;100.35;;;43.15;;
33952;SDS011;20231;42.710;23.280;2022-12-07T06:26:41;82.38;;;37.63;;
33952;SDS011;20231;42.710;23.280;2022-12-07T06:29:07;74.53;;;36.58;;
33952;SDS011;20231;42.710;23.280;2022-12-07T06:31:33;68.95;;;34.15;;
33952;SDS011;20231;42.710;23.280;2022-12-07T06:34:02;66.90;;;31.60;;
33952;SDS011;20231;42.710;23.280;2022-12-07T06:36:50;61.70;;;32.28;;
33952;SDS011;20231;42.710;23.280;2022-12-07T06:39:18;59.85;;;28.13;;
33952;SDS011;20231;42.710;23.280;2022-12-07T06:41:45;57.60;;;30.27;;
33952;SDS011;20231;42.710;23.280;2022-12-07T06:44:10;56.08;;;29.45;;
33952;SDS011;20231;42.710;23.280;2022-12-07T06:46:36;51.88;;;27.70;;
33952;SDS011;20231;42.710;23.280;2022-12-07T06:49:02;53.42;;;27.77;;
33952;SDS011;20231;42.710;23.280;2022-12-07T06:51:28;54.65;;;27.45;;
33952;SDS011;20231;42.710;23.280;2022-12-07T06:53:53;50.17;;;26.73;;
33952;SDS011;20231;42.710;23.280;2022-12-07T06:56:20;55.40;;;26.63;;
33952;SDS011;20231;42.710;23.280;2022-12-07T06:58:45;54.25;;;28.00;;
33952;SDS011;20231;42.710;23.280;2022-12-07T07:01:11;48.55;;;28.38;;
33952;SDS011;20231;42.710;23.280;2022-12-07T07:03:39;62.67;;;31.42;;
33952;SDS011;20231;42.710;23.280;2022-12-07T07:06:05;51.20;;;26.13;;
33952;SDS011;20231;42.710;23.280;2022-12-07T07:08:31;67.82;;;31.90;;
33952;SDS011;20231;42.710;23.280;2022-12-07T07:10:56;83.07;;;43.38;;
33952;SDS011;20231;42.710;23.280;2022-12-07T07:13:22;60.90;;;31.80;;
33952;SDS011;20231;42.710;23.280;2022-12-07T07:15:47;55.63;;;28.58;;
33952;SDS011;20231;42.710;23.280;2022-12-07T07:18:13;52.28;;;27.27;;
33952;SDS011;20231;42.710;23.280;2022-12-07T07:20:38;57.97;;;30.75;;
33952;SDS011;20231;42.710;23.280;2022-12-07T07:23:04;81.10;;;39.33;;
33952;SDS011;20231;42.710;23.280;2022-12-07T07:25:29;75.50;;;37.70;;
33952;SDS011;20231;42.710;23.280;2022-12-07T07:27:55;72.90;;;37.08;;
33952;SDS011;20231;42.710;23.280;2022-12-07T07:30:20;70.15;;;36.28;;
33952;SDS011;20231;42.710;23.280;2022-12-07T07:32:45;67.13;;;34.85;;
33952;SDS011;20231;42.710;23.280;2022-12-07T07:35:11;65.35;;;36.42;;
33952;SDS011;20231;42.710;23.280;2022-12-07T07:37:37;61.95;;;34.47;;
33952;SDS011;20231;42.710;23.280;2022-12-07T07:40:02;55.88;;;29.90;;
33952;SDS011;20231;42.710;23.280;2022-12-07T07:42:28;52.13;;;28.42;;
33952;SDS011;20231;42.710;23.280;2022-12-07T07:44:53;55.53;;;28.08;;
33952;SDS011;20231;42.710;23.280;2022-12-07T07:47:19;51.70;;;27.40;;
33952;SDS011;20231;42.710;23.280;2022-12-07T07:49:44;53.17;;;26.42;;
33952;SDS011;20231;42.710;23.280;2022-12-07T07:52:09;54.88;;;25.45;;
33952;SDS011;20231;42.710;23.280;2022-12-07T07:54:35;47.95;;;25.25;;
33952;SDS011;20231;42.710;23.280;2022-12-07T07:57:00;54.35;;;26.42;;
33952;SDS011;20231;42.710;23.280;2022-12-07T07:59:26;55.78;;;26.60;;
33952;SDS011;20231;42.710;23.280;2022-12-07T08:01:51;51.10;;;25.27;;
33952;SDS011;20231;42.710;23.280;2022-12-07T08:04:16;44.33;;;23.00;;
33952;SDS011;20231;42.710;23.280;2022-12-07T08:06:42;56.03;;;24.88;;
33952;SDS011;20231;42.710;23.280;2022-12-07T08:09:08;54.85;;;25.55;;
33952;SDS011;20231;42.710;23.280;2022-12-07T08:11:34;56.05;;;23.90;;
33952;SDS011;20231;42.710;23.280;2022-12-07T08:14:01;47.78;;;25.20;;
33952;SDS011;20231;42.710;23.280;2022-12-07T08:16:26;57.50;;;26.40;;
33952;SDS011;20231;42.710;23.280;2022-12-07T08:18:52;54.58;;;26.90;;
33952;SDS011;20231;42.710;23.280;2022-12-07T08:21:17;51.90;;;25.80;;
33952;SDS011;20231;42.710;23.280;2022-12-07T08:23:42;53.55;;;25.85;;
33952;SDS011;20231;42.710;23.280;2022-12-07T08:26:12;54.20;;;25.77;;
33952;SDS011;20231;42.710;23.280;2022-12-07T08:28:39;57.40;;;28.70;;
33952;SDS011;20231;42.710;23.280;2022-12-07T08:31:10;52.60;;;29.58;;
33952;SDS011;20231;42.710;23.280;2022-12-07T08:33:37;60.45;;;31.10;;
33952;SDS011;20231;42.710;23.280;2022-12-07T08:36:04;56.22;;;29.02;;
33952;SDS011;20231;42.710;23.280;2022-12-07T08:38:31;55.72;;;30.05;;
33952;SDS011;20231;42.710;23.280;2022-12-07T08:40:57;53.28;;;29.27;;
33952;SDS011;20231;42.710;23.280;2022-12-07T08:43:24;58.40;;;31.10;;
33952;SDS011;20231;42.710;23.280;2022-12-07T08:45:52;52.85;;;27.67;;
33952;SDS011;20231;42.710;23.280;2022-12-07T08:48:36;55.28;;;27.48;;
33952;SDS011;20231;42.710;23.280;2022-12-07T08:51:07;49.47;;;27.00;;
33952;SDS011;20231;42.710;23.280;2022-12-07T08:53:33;54.88;;;27.98;;
33952;SDS011;20231;42.710;23.280;2022-12-07T08:56:00;50.78;;;28.50;;
33952;SDS011;20231;42.710;23.280;2022-12-07T08:58:26;57.03;;;28.08;;
33952;SDS011;20231;42.710;23.280;2022-12-07T09:00:51;56.97;;;28.02;;
33952;SDS011;20231;42.710;23.280;2022-12-07T09:03:17;55.25;;;26.98;;
33952;SDS011;20231;42.710;23.280;2022-12-07T09:05:42;52.50;;;26.90;;
33952;SDS011;20231;42.710;23.280;2022-12-07T09:08:08;54.30;;;28.02;;
33952;SDS011;20231;42.710;23.280;2022-12-07T09:10:33;56.42;;;29.27;;
33952;SDS011;20231;42.710;23.280;2022-12-07T09:12:59;66.85;;;31.58;;
33952;SDS011;20231;42.710;23.280;2022-12-07T09:15:28;56.05;;;31.17;;
33952;SDS011;20231;42.710;23.280;2022-12-07T09:17:54;59.40;;;30.15;;
33952;SDS011;20231;42.710;23.280;2022-12-07T09:20:19;62.65;;;29.52;;
33952;SDS011;20231;42.710;23.280;2022-12-07T09:22:45;56.55;;;30.48;;
33952;SDS011;20231;42.710;23.280;2022-12-07T09:25:10;74.85;;;31.02;;
33952;SDS011;20231;42.710;23.280;2022-12-07T09:27:36;68.22;;;32.67;;
33952;SDS011;20231;42.710;23.280;2022-12-07T09:30:02;67.10;;;33.00;;
33952;SDS011;20231;42.710;23.280;2022-12-07T09:32:28;61.92;;;31.85;;
33952;SDS011;20231;42.710;23.280;2022-12-07T09:34:54;70.03;;;30.90;;
33952;SDS011;20231;42.710;23.280;2022-12-07T09:37:20;68.18;;;30.02;;
33952;SDS011;20231;42.710;23.280;2022-12-07T09:39:45;71.90;;;32.13;;
33952;SDS011;20231;42.710;23.280;2022-12-07T09:42:11;66.63;;;32.78;;
33952;SDS011;20231;42.710;23.280;2022-12-07T09:44:51;66.95;;;34.42;;
33952;SDS011;20231;42.710;23.280;2022-12-07T09:47:17;64.68;;;33.80;;
33952;SDS011;20231;42.710;23.280;2022-12-07T09:49:42;70.80;;;35.10;;
33952;SDS011;20231;42.710;23.280;2022-12-07T09:54:34;73.57;;;36.85;;
33952;SDS011;20231;42.710;23.280;2022-12-07T09:57:01;71.80;;;34.10;;
33952;SDS011;20231;42.710;23.280;2022-12-07T09:59:27;68.07;;;34.35;;
33952;SDS011;20231;42.710;23.280;2022-12-07T10:01:53;67.10;;;34.00;;
33952;SDS011;20231;42.710;23.280;2022-12-07T10:04:27;95.03;;;43.35;;
33952;SDS011;20231;42.710;23.280;2022-12-07T10:06:54;96.32;;;41.80;;
33952;SDS011;20231;42.710;23.280;2022-12-07T10:09:20;94.38;;;42.60;;
33952;SDS011;20231;42.710;23.280;2022-12-07T10:12:06;69.60;;;32.30;;
33952;SDS011;20231;42.710;23.280;2022-12-07T10:14:48;66.45;;;34.03;;
33952;SDS011;20231;42.710;23.280;2022-12-07T10:17:27;72.30;;;35.33;;
33952;SDS011;20231;42.710;23.280;2022-12-07T10:20:12;77.57;;;36.05;;
33952;SDS011;20231;42.710;23.280;2022-12-07T10:25:41;68.10;;;32.50;;
33952;SDS011;20231;42.710;23.280;2022-12-07T10:30:33;51.92;;;27.13;;
33952;SDS011;20231;42.710;23.280;2022-12-07T10:33:26;52.40;;;27.52;;
33952;SDS011;20231;42.710;23.280;2022-12-07T10:35:56;48.72;;;25.38;;
33952;SDS011;20231;42.710;23.280;2022-12-07T10:38:22;52.60;;;26.52;;
33952;SDS011;20231;42.710;23.280;2022-12-07T10:41:03;51.78;;;25.58;;
33952;SDS011;20231;42.710;23.280;2022-12-07T10:43:32;43.10;;;23.42;;
33952;SDS011;20231;42.710;23.280;2022-12-07T10:48:46;45.17;;;24.15;;
33952;SDS011;20231;42.710;23.280;2022-12-07T10:51:40;55.92;;;25.38;;
33952;SDS011;20231;42.710;23.280;2022-12-07T10:54:20;52.53;;;24.33;;
33952;SDS011;20231;42.710;23.280;2022-12-07T11:02:24;47.17;;;25.45;;
33952;SDS011;20231;42.710;23.280;2022-12-07T11:15:26;43.85;;;23.75;;
33952;SDS011;20231;42.710;23.280;2022-12-07T11:18:18;41.22;;;20.15;;
33952;SDS011;20231;42.710;23.280;2022-12-07T11:21:04;61.67;;;30.20;;
33952;SDS011;20231;42.710;23.280;2022-12-07T11:34:46;50.22;;;26.15;;
33952;SDS011;20231;42.710;23.280;2022-12-07T11:37:18;50.35;;;24.77;;
33952;SDS011;20231;42.710;23.280;2022-12-07T11:39:51;65.93;;;26.70;;
33952;SDS011;20231;42.710;23.280;2022-12-07T11:48:03;42.72;;;22.92;;
33952;SDS011;20231;42.710;23.280;2022-12-07T11:53:17;42.72;;;21.98;;
33952;SDS011;20231;42.710;23.280;2022-12-07T12:03:43;34.15;;;19.25;;
33952;SDS011;20231;42.710;23.280;2022-12-07T12:06:11;36.75;;;18.83;;
33952;SDS011;20231;42.710;23.280;2022-12-07T12:08:53;39.00;;;19.30;;
33952;SDS011;20231;42.710;23.280;2022-12-07T12:14:11;41.83;;;19.15;;
33952;SDS011;20231;42.710;23.280;2022-12-07T12:19:42;34.83;;;18.92;;
33952;SDS011;20231;42.710;23.280;2022-12-07T12:22:24;32.38;;;18.20;;
33952;SDS011;20231;42.710;23.280;2022-12-07T12:24:59;39.42;;;18.23;;
33952;SDS011;20231;42.710;23.280;2022-12-07T12:27:37;35.30;;;18.63;;
33952;SDS011;20231;42.710;23.280;2022-12-07T12:30:06;47.75;;;20.05;;
33952;SDS011;20231;42.710;23.280;2022-12-07T12:32:49;39.22;;;20.33;;
33952;SDS011;20231;42.710;23.280;2022-12-07T12:37:55;41.33;;;19.98;;
33952;SDS011;20231;42.710;23.280;2022-12-07T12:40:53;43.33;;;19.00;;
33952;SDS011;20231;42.710;23.280;2022-12-07T12:51:39;29.67;;;15.52;;
33952;SDS011;20231;42.710;23.280;2022-12-07T12:54:10;30.17;;;13.90;;
33952;SDS011;20231;42.710;23.280;2022-12-07T13:01:49;33.65;;;14.65;;
33952;SDS011;20231;42.710;23.280;2022-12-07T13:06:52;34.78;;;14.77;;
33952;SDS011;20231;42.710;23.280;2022-12-07T13:09:36;31.25;;;15.82;;
33952;SDS011;20231;42.710;23.280;2022-12-07T13:12:13;26.35;;;13.18;;
33952;SDS011;20231;42.710;23.280;2022-12-07T13:14:41;32.83;;;15.18;;
33952;SDS011;20231;42.710;23.280;2022-12-07T13:20:05;27.38;;;14.52;;
33952;SDS011;20231;42.710;23.280;2022-12-07T13:25:21;27.70;;;15.05;;
33952;SDS011;20231;42.710;23.280;2022-12-07T13:33:35;29.55;;;15.63;;
33952;SDS011;20231;42.710;23.280;2022-12-07T13:36:01;24.45;;;14.07;;
33952;SDS011;20231;42.710;23.280;2022-12-07T13:38:31;31.45;;;15.80;;
33952;SDS011;20231;42.710;23.280;2022-12-07T13:43:48;30.63;;;15.27;;
33952;SDS011;20231;42.710;23.280;2022-12-07T13:46:13;31.33;;;14.55;;
33952;SDS011;20231;42.710;23.280;2022-12-07T13:48:47;29.58;;;14.63;;
33952;SDS011;20231;42.710;23.280;2022-12-07T13:51:16;32.28;;;15.50;;
33952;SDS011;20231;42.710;23.280;2022-12-07T13:53:48;31.90;;;15.88;;
33952;SDS011;20231;42.710;23.280;2022-12-07T13:56:18;35.83;;;16.20;;
33952;SDS011;20231;42.710;23.280;2022-12-07T13:58:45;31.30;;;15.15;;
33952;SDS011;20231;42.710;23.280;2022-12-07T14:01:11;27.75;;;15.38;;
33952;SDS011;20231;42.710;23.280;2022-12-07T14:03:38;27.58;;;15.35;;
33952;SDS011;20231;42.710;23.280;2022-12-07T14:08:41;28.52;;;14.88;;
33952;SDS011;20231;42.710;23.280;2022-12-07T14:11:08;34.83;;;15.13;;
33952;SDS011;20231;42.710;23.280;2022-12-07T14:16:34;34.45;;;14.43;;
33952;SDS011;20231;42.710;23.280;2022-12-07T14:19:03;28.48;;;15.63;;
33952;SDS011;20231;42.710;23.280;2022-12-07T14:21:31;31.60;;;15.65;;
33952;SDS011;20231;42.710;23.280;2022-12-07T14:26:44;34.78;;;15.98;;
33952;SDS011;20231;42.710;23.280;2022-12-07T14:29:22;37.30;;;16.88;;
33952;SDS011;20231;42.710;23.280;2022-12-07T14:31:51;31.20;;;15.45;;
33952;SDS011;20231;42.710;23.280;2022-12-07T14:34:19;30.63;;;14.43;;
33952;SDS011;20231;42.710;23.280;2022-12-07T14:36:46;35.50;;;16.35;;
33952;SDS011;20231;42.710;23.280;2022-12-07T14:39:11;26.17;;;15.73;;
33952;SDS011;20231;42.710;23.280;2022-12-07T14:41:37;34.13;;;15.93;;
33952;SDS011;20231;42.710;23.280;2022-12-07T14:44:18;34.13;;;15.77;;
33952;SDS011;20231;42.710;23.280;2022-12-07T14:46:46;31.98;;;16.02;;
33952;SDS011;20231;42.710;23.280;2022-12-07T14:49:12;39.38;;;18.60;;
33952;SDS011;20231;42.710;23.280;2022-12-07T14:51:38;38.85;;;18.77;;
33952;SDS011;20231;42.710;23.280;2022-12-07T14:54:05;43.63;;;18.63;;
33952;SDS011;20231;42.710;23.280;2022-12-07T14:56:36;45.58;;;20.67;;
33952;SDS011;20231;42.710;23.280;2022-12-07T14:59:01;39.55;;;21.40;;
33952;SDS011;20231;42.710;23.280;2022-12-07T15:01:27;55.55;;;25.00;;
33952;SDS011;20231;42.710;23.280;2022-12-07T15:03:52;35.30;;;19.63;;
33952;SDS011;20231;42.710;23.280;2022-12-07T15:06:18;35.33;;;17.90;;
33952;SDS011;20231;42.710;23.280;2022-12-07T15:08:43;65.97;;;37.15;;
33952;SDS011;20231;42.710;23.280;2022-12-07T15:11:13;74.35;;;35.65;;
33952;SDS011;20231;42.710;23.280;2022-12-07T15:13:40;63.17;;;34.08;;
33952;SDS011;20231;42.710;23.280;2022-12-07T15:16:24;61.03;;;29.50;;
33952;SDS011;20231;42.710;23.280;2022-12-07T15:18:49;53.42;;;27.33;;
33952;SDS011;20231;42.710;23.280;2022-12-07T15:21:15;52.38;;;22.40;;
33952;SDS011;20231;42.710;23.280;2022-12-07T15:23:41;49.95;;;24.20;;
33952;SDS011;20231;42.710;23.280;2022-12-07T15:26:07;64.07;;;29.90;;
33952;SDS011;20231;42.710;23.280;2022-12-07T15:28:34;65.90;;;33.42;;
33952;SDS011;20231;42.710;23.280;2022-12-07T15:31:00;70.53;;;34.58;;
33952;SDS011;20231;42.710;23.280;2022-12-07T15:33:25;76.75;;;35.92;;
33952;SDS011;20231;42.710;23.280;2022-12-07T15:35:51;81.55;;;39.38;;
33952;SDS011;20231;42.710;23.280;2022-12-07T15:38:16;60.78;;;29.83;;
33952;SDS011;20231;42.710;23.280;2022-12-07T15:40:41;49.40;;;24.77;;
33952;SDS011;20231;42.710;23.280;2022-12-07T15:43:10;41.05;;;21.90;;
33952;SDS011;20231;42.710;23.280;2022-12-07T15:45:55;40.53;;;20.42;;
33952;SDS011;20231;42.710;23.280;2022-12-07T15:48:20;39.05;;;19.33;;
33952;SDS011;20231;42.710;23.280;2022-12-07T15:50:46;43.92;;;22.27;;
33952;SDS011;20231;42.710;23.280;2022-12-07T15:53:11;45.75;;;20.92;;
33952;SDS011;20231;42.710;23.280;2022-12-07T15:55:40;46.65;;;22.30;;
33952;SDS011;20231;42.710;23.280;2022-12-07T15:58:05;48.50;;;21.70;;
33952;SDS011;20231;42.710;23.280;2022-12-07T16:00:31;58.67;;;25.35;;
33952;SDS011;20231;42.710;23.280;2022-12-07T16:02:57;47.38;;;24.33;;
33952;SDS011;20231;42.710;23.280;2022-12-07T16:05:22;47.67;;;22.90;;
33952;SDS011;20231;42.710;23.280;2022-12-07T16:07:48;71.13;;;34.83;;
33952;SDS011;20231;42.710;23.280;2022-12-07T16:10:13;98.28;;;54.08;;
33952;SDS011;20231;42.710;23.280;2022-12-07T16:12:39;67.32;;;31.67;;
33952;SDS011;20231;42.710;23.280;2022-12-07T16:15:04;57.85;;;28.73;;
33952;SDS011;20231;42.710;23.280;2022-12-07T16:17:30;62.35;;;30.33;;
33952;SDS011;20231;42.710;23.280;2022-12-07T16:19:56;64.50;;;32.00;;
33952;SDS011;20231;42.710;23.280;2022-12-07T16:22:22;68.25;;;36.58;;
33952;SDS011;20231;42.710;23.280;2022-12-07T16:24:48;58.75;;;30.65;;